Flugplatz Gerstetten (EDPT)

Hier findest Du alle Informationen zum Flugplatz Gerstetten (EDPT).

Informationen für Piloten zum Flugplatz Gerstetten

Hier findest Du alle relevanten Informationen, die Du als Pilot benötigst, um Gerstetten anzufliegen.

Flugplatz: Gerstetten ICAO-Code: EDPT
Frequenz Turm: 123,000 Mhz GAFOR Gebiet: 62
Frequenz Ground: 123,000 Mhz Mogas: nein
Platzrunde: S 3000 ft Landegebühr: -
Platzhöhe: - Sunrise: 03:19 Uhr UTC
Pisten: 08/26 - 530 m x 30 m, GRAS Sunset: 19:27 Uhr UTC

Mitglieder, die in Gerstetten fliegen

Flugwetter am Flugplatz Gerstetten

Die METAR Information stammen aus EDDS (62.14 km entfernt).

METAR Code:
2022/06/28 07:50
EDDS 280750Z AUTO 01006KT 310V060 9999 SCT013 18/15 Q1022 NOSIG

Temperatur: 12,2 °C Niederschlag: - Wind: 2,8 kt (max.: 2,8 kt in Böen)
Temperatur (min.): 11,4 °C Luftdruck: 1024 hPa Windrichtung: 193 °
Temperatur (max.): 13,4 °C Luftfeuchtigkeit: 91 % Bewölkung: 1/8

Flugschulen am Flugplatz Gerstetten

Am Flugplatz Gerstetten gibt es leider keine Flugschule.

Benachbarte Flugplätze und Flugschulen

Es gibt 29 weitere Flugplätze in einem Umkreis von 50 km um den Flugplatz Gerstetten.

Jetzt anmelden

Passwort vergessen

Umfrage Archiv

Sendet Ihr ADS-B und/oder FLARM?

Ja
83.1 %
Nein
16.9 %
Stimmen: 177 | Diskussion
Anzeige: Roland Aircraft
Statistik Alle Mitglieder

Aktuell sind 66 Besucher online, davon 1 Mitglied und 65 Gäste.


Mitglieder online:
Moskito_Andi 

Anzeige: ULPower Aero Engines Anzeige: Pocket FMS